Schoonebeek, Netherlands
Current Conditions -  °F | °C
As of 9:20 PM on Tuesday 27 Jan 2015 (Local Time) from ETWM Reporting Station
NA  
Wind Chill:   Ceiling: NA
Heat Index:   Visibility: 3mi
Dew Point:   Wind: 7mph
Humidity: 93%   Direction: 250°WSW
Pressure: 30.12"   Gusts: NA
Location:  52.66°N, 6.88°E
Report Text: ETWM 272020Z AUTO 25006KT 5000 // ////// 04/03 Q1020 ///
Loading
Personal Weather Stations






























Interactive Weather Map New forecast layout! Learn more

10-Day Weather Forecast

Advertisements
Track Severe Weather on mobile